sensor_id;sensor_type;location;lat;lon;timestamp;temperature;humidity
17405;DHT22;8820;54.604;18.226;2023-03-16T05:02:03;20.00;47.40
17405;DHT22;8820;54.604;18.226;2023-03-16T05:04:32;13.90;43.10
17405;DHT22;8820;54.604;18.226;2023-03-16T05:07:02;9.80;50.40
17405;DHT22;8820;54.604;18.226;2023-03-16T05:09:36;7.40;56.60
17405;DHT22;8820;54.604;18.226;2023-03-16T05:12:05;5.80;63.00
17405;DHT22;8820;54.604;18.226;2023-03-16T05:14:35;4.80;75.70
17405;DHT22;8820;54.604;18.226;2023-03-16T05:17:28;4.30;90.20
17405;DHT22;8820;54.604;18.226;2023-03-16T05:19:56;4.00;95.20
17405;DHT22;8820;54.604;18.226;2023-03-16T05:22:26;3.80;98.20
17405;DHT22;8820;54.604;18.226;2023-03-16T05:25:09;3.50;99.90
17405;DHT22;8820;54.604;18.226;2023-03-16T05:27:45;3.50;99.90
17405;DHT22;8820;54.604;18.226;2023-03-16T05:30:20;3.50;99.90
17405;DHT22;8820;54.604;18.226;2023-03-16T05:32:52;3.50;99.90
17405;DHT22;8820;54.604;18.226;2023-03-16T05:35:24;3.30;99.90
17405;DHT22;8820;54.604;18.226;2023-03-16T05:37:59;3.40;99.90
17405;DHT22;8820;54.604;18.226;2023-03-16T05:40:29;3.50;99.90
17405;DHT22;8820;54.604;18.226;2023-03-16T05:43:14;3.60;99.90
17405;DHT22;8820;54.604;18.226;2023-03-16T05:45:48;3.60;99.90
17405;DHT22;8820;54.604;18.226;2023-03-16T05:48:19;3.50;99.90
17405;DHT22;8820;54.604;18.226;2023-03-16T05:50:53;3.70;99.90
17405;DHT22;8820;54.604;18.226;2023-03-16T05:53:26;3.80;99.90
17405;DHT22;8820;54.604;18.226;2023-03-16T05:56:02;4.00;99.90
17405;DHT22;8820;54.604;18.226;2023-03-16T05:58:34;3.90;99.90
17405;DHT22;8820;54.604;18.226;2023-03-16T06:01:06;4.00;99.90
17405;DHT22;8820;54.604;18.226;2023-03-16T06:03:37;4.00;99.90
17405;DHT22;8820;54.604;18.226;2023-03-16T06:06:08;4.00;99.90
17405;DHT22;8820;54.604;18.226;2023-03-16T06:08:48;4.10;99.90
17405;DHT22;8820;54.604;18.226;2023-03-16T06:11:18;4.10;99.90
17405;DHT22;8820;54.604;18.226;2023-03-16T06:13:47;4.20;99.90
17405;DHT22;8820;54.604;18.226;2023-03-16T06:16:16;4.30;99.90
17405;DHT22;8820;54.604;18.226;2023-03-16T06:18:46;4.30;99.90
17405;DHT22;8820;54.604;18.226;2023-03-16T06:21:15;4.40;99.90
17405;DHT22;8820;54.604;18.226;2023-03-16T06:23:46;4.50;99.90
17405;DHT22;8820;54.604;18.226;2023-03-16T06:26:15;4.50;99.90
17405;DHT22;8820;54.604;18.226;2023-03-16T06:28:46;4.50;99.90
17405;DHT22;8820;54.604;18.226;2023-03-16T06:31:15;4.80;99.90
17405;DHT22;8820;54.604;18.226;2023-03-16T06:33:47;4.80;99.90
17405;DHT22;8820;54.604;18.226;2023-03-16T06:36:15;4.90;99.90
17405;DHT22;8820;54.604;18.226;2023-03-16T06:38:48;5.20;99.00
17405;DHT22;8820;54.604;18.226;2023-03-16T06:41:36;5.40;96.80
17405;DHT22;8820;54.604;18.226;2023-03-16T06:44:05;5.40;97.30
17405;DHT22;8820;54.604;18.226;2023-03-16T06:46:38;5.40;96.70
17405;DHT22;8820;54.604;18.226;2023-03-16T06:49:09;5.50;97.00
17405;DHT22;8820;54.604;18.226;2023-03-16T06:51:38;5.60;95.50
17405;DHT22;8820;54.604;18.226;2023-03-16T06:54:08;5.90;94.20
17405;DHT22;8820;54.604;18.226;2023-03-16T06:56:39;6.10;92.30
17405;DHT22;8820;54.604;18.226;2023-03-16T06:59:07;6.30;91.60
17405;DHT22;8820;54.604;18.226;2023-03-16T07:01:36;6.50;90.30
17405;DHT22;8820;54.604;18.226;2023-03-16T07:04:05;6.60;86.30
17405;DHT22;8820;54.604;18.226;2023-03-16T07:06:35;6.30;87.90
17405;DHT22;8820;54.604;18.226;2023-03-16T07:09:04;6.30;90.70
17405;DHT22;8820;54.604;18.226;2023-03-16T07:11:34;6.70;88.30
17405;DHT22;8820;54.604;18.226;2023-03-16T07:14:02;6.90;82.20
17405;DHT22;8820;54.604;18.226;2023-03-16T07:16:32;7.10;80.30
17405;DHT22;8820;54.604;18.226;2023-03-16T07:19:03;7.10;80.40
17405;DHT22;8820;54.604;18.226;2023-03-16T07:21:32;7.10;80.30
17405;DHT22;8820;54.604;18.226;2023-03-16T07:24:11;6.80;83.80
17405;DHT22;8820;54.604;18.226;2023-03-16T07:26:41;7.00;81.90
17405;DHT22;8820;54.604;18.226;2023-03-16T07:29:13;7.00;90.90
17405;DHT22;8820;54.604;18.226;2023-03-16T07:31:43;7.30;83.20
17405;DHT22;8820;54.604;18.226;2023-03-16T07:34:18;7.30;82.30
17405;DHT22;8820;54.604;18.226;2023-03-16T07:36:52;7.70;78.60
17405;DHT22;8820;54.604;18.226;2023-03-16T07:39:25;8.00;74.60
17405;DHT22;8820;54.604;18.226;2023-03-16T07:42:02;8.40;72.40
17405;DHT22;8820;54.604;18.226;2023-03-16T07:44:51;8.70;68.30
17405;DHT22;8820;54.604;18.226;2023-03-16T07:47:20;8.80;72.80
17405;DHT22;8820;54.604;18.226;2023-03-16T07:49:55;8.90;66.90
17405;DHT22;8820;54.604;18.226;2023-03-16T07:52:24;9.50;65.90
17405;DHT22;8820;54.604;18.226;2023-03-16T07:54:54;9.10;64.00
17405;DHT22;8820;54.604;18.226;2023-03-16T07:57:23;8.60;67.10
17405;DHT22;8820;54.604;18.226;2023-03-16T07:59:52;8.50;68.60
17405;DHT22;8820;54.604;18.226;2023-03-16T08:02:20;8.40;68.60
17405;DHT22;8820;54.604;18.226;2023-03-16T08:04:50;8.10;68.20
17405;DHT22;8820;54.604;18.226;2023-03-16T08:07:19;8.10;69.40
17405;DHT22;8820;54.604;18.226;2023-03-16T08:10:03;7.90;70.30
17405;DHT22;8820;54.604;18.226;2023-03-16T08:12:40;7.70;72.10
17405;DHT22;8820;54.604;18.226;2023-03-16T08:15:10;7.50;73.30
17405;DHT22;8820;54.604;18.226;2023-03-16T08:17:39;7.40;75.20
17405;DHT22;8820;54.604;18.226;2023-03-16T08:20:13;7.40;75.70
17405;DHT22;8820;54.604;18.226;2023-03-16T08:22:43;7.30;76.70
17405;DHT22;8820;54.604;18.226;2023-03-16T08:25:16;7.10;77.40
17405;DHT22;8820;54.604;18.226;2023-03-16T08:27:55;7.00;78.30
17405;DHT22;8820;54.604;18.226;2023-03-16T08:30:25;6.80;80.60
17405;DHT22;8820;54.604;18.226;2023-03-16T08:33:11;6.70;81.20
17405;DHT22;8820;54.604;18.226;2023-03-16T08:35:41;6.60;81.60
17405;DHT22;8820;54.604;18.226;2023-03-16T08:38:11;6.70;81.90
17405;DHT22;8820;54.604;18.226;2023-03-16T08:40:42;6.80;79.50
17405;DHT22;8820;54.604;18.226;2023-03-16T08:43:17;6.60;80.20
17405;DHT22;8820;54.604;18.226;2023-03-16T08:45:47;6.70;81.10
17405;DHT22;8820;54.604;18.226;2023-03-16T08:48:19;7.00;80.20
17405;DHT22;8820;54.604;18.226;2023-03-16T08:50:50;7.30;77.10
17405;DHT22;8820;54.604;18.226;2023-03-16T08:53:20;7.50;76.40
17405;DHT22;8820;54.604;18.226;2023-03-16T08:55:50;7.70;73.00
17405;DHT22;8820;54.604;18.226;2023-03-16T08:58:19;8.00;72.10
17405;DHT22;8820;54.604;18.226;2023-03-16T09:00:47;8.30;71.40
17405;DHT22;8820;54.604;18.226;2023-03-16T09:03:16;8.50;69.40
17405;DHT22;8820;54.604;18.226;2023-03-16T09:05:46;8.40;67.50
17405;DHT22;8820;54.604;18.226;2023-03-16T09:08:15;8.30;67.30
17405;DHT22;8820;54.604;18.226;2023-03-16T09:10:44;8.30;67.60
17405;DHT22;8820;54.604;18.226;2023-03-16T09:13:14;8.50;68.70
17405;DHT22;8820;54.604;18.226;2023-03-16T09:15:43;8.60;68.00
17405;DHT22;8820;54.604;18.226;2023-03-16T09:18:12;8.30;66.40
17405;DHT22;8820;54.604;18.226;2023-03-16T09:20:41;8.20;68.20
17405;DHT22;8820;54.604;18.226;2023-03-16T09:23:09;8.00;68.30
17405;DHT22;8820;54.604;18.226;2023-03-16T09:25:40;8.00;69.80
17405;DHT22;8820;54.604;18.226;2023-03-16T09:28:08;8.20;69.60
17405;DHT22;8820;54.604;18.226;2023-03-16T09:30:48;8.50;68.20
17405;DHT22;8820;54.604;18.226;2023-03-16T09:33:17;8.70;66.80
17405;DHT22;8820;54.604;18.226;2023-03-16T09:35:52;8.80;65.20
17405;DHT22;8820;54.604;18.226;2023-03-16T09:38:22;8.80;65.50
17405;DHT22;8820;54.604;18.226;2023-03-16T09:40:56;8.70;65.20
17405;DHT22;8820;54.604;18.226;2023-03-16T09:43:53;8.70;64.30
17405;DHT22;8820;54.604;18.226;2023-03-16T09:46:27;8.70;65.50
17405;DHT22;8820;54.604;18.226;2023-03-16T09:49:01;8.60;65.40
17405;DHT22;8820;54.604;18.226;2023-03-16T09:51:37;8.40;66.10
17405;DHT22;8820;54.604;18.226;2023-03-16T09:54:16;8.30;66.80
17405;DHT22;8820;54.604;18.226;2023-03-16T09:56:47;8.70;67.00
17405;DHT22;8820;54.604;18.226;2023-03-16T09:59:17;8.90;64.20
17405;DHT22;8820;54.604;18.226;2023-03-16T10:01:58;8.70;64.80
17405;DHT22;8820;54.604;18.226;2023-03-16T10:04:38;8.70;65.60
17405;DHT22;8820;54.604;18.226;2023-03-16T10:07:20;9.00;65.80
17405;DHT22;8820;54.604;18.226;2023-03-16T10:09:55;8.80;65.90
17405;DHT22;8820;54.604;18.226;2023-03-16T10:12:29;8.60;66.90
17405;DHT22;8820;54.604;18.226;2023-03-16T10:15:03;8.30;68.10
17405;DHT22;8820;54.604;18.226;2023-03-16T10:17:39;8.00;69.60
17405;DHT22;8820;54.604;18.226;2023-03-16T10:20:14;7.90;71.70
17405;DHT22;8820;54.604;18.226;2023-03-16T10:22:45;8.00;72.90
17405;DHT22;8820;54.604;18.226;2023-03-16T10:25:19;8.10;72.90
17405;DHT22;8820;54.604;18.226;2023-03-16T10:27:49;7.80;73.70
17405;DHT22;8820;54.604;18.226;2023-03-16T10:30:21;7.50;77.00
17405;DHT22;8820;54.604;18.226;2023-03-16T10:32:52;7.50;78.10
17405;DHT22;8820;54.604;18.226;2023-03-16T10:35:39;7.40;81.30
17405;DHT22;8820;54.604;18.226;2023-03-16T10:38:23;7.80;81.50
17405;DHT22;8820;54.604;18.226;2023-03-16T10:40:53;8.10;77.80
17405;DHT22;8820;54.604;18.226;2023-03-16T10:43:24;8.30;75.50
17405;DHT22;8820;54.604;18.226;2023-03-16T10:45:58;8.40;75.10
17405;DHT22;8820;54.604;18.226;2023-03-16T10:48:31;8.40;73.00
17405;DHT22;8820;54.604;18.226;2023-03-16T10:51:05;8.30;74.00
17405;DHT22;8820;54.604;18.226;2023-03-16T10:53:37;7.70;79.40
17405;DHT22;8820;54.604;18.226;2023-03-16T10:56:11;7.10;90.70
17405;DHT22;8820;54.604;18.226;2023-03-16T10:58:42;7.00;95.10
17405;DHT22;8820;54.604;18.226;2023-03-16T11:01:17;7.20;97.10
17405;DHT22;8820;54.604;18.226;2023-03-16T11:03:50;7.30;97.00
17405;DHT22;8820;54.604;18.226;2023-03-16T11:06:21;7.20;95.90
17405;DHT22;8820;54.604;18.226;2023-03-16T11:08:52;7.40;97.30
17405;DHT22;8820;54.604;18.226;2023-03-16T11:11:25;7.60;97.20
17405;DHT22;8820;54.604;18.226;2023-03-16T11:13:57;7.70;96.80
17405;DHT22;8820;54.604;18.226;2023-03-16T11:16:30;8.20;94.70
17405;DHT22;8820;54.604;18.226;2023-03-16T11:19:11;8.30;88.60
17405;DHT22;8820;54.604;18.226;2023-03-16T11:21:47;8.40;87.10
17405;DHT22;8820;54.604;18.226;2023-03-16T11:24:24;8.30;86.60
17405;DHT22;8820;54.604;18.226;2023-03-16T11:26:57;8.10;88.30
17405;DHT22;8820;54.604;18.226;2023-03-16T11:29:39;7.80;90.30
17405;DHT22;8820;54.604;18.226;2023-03-16T11:32:12;7.60;88.30
17405;DHT22;8820;54.604;18.226;2023-03-16T11:34:43;7.50;86.90
17405;DHT22;8820;54.604;18.226;2023-03-16T11:37:22;7.90;85.10
17405;DHT22;8820;54.604;18.226;2023-03-16T11:39:59;8.00;82.30
17405;DHT22;8820;54.604;18.226;2023-03-16T11:42:37;8.10;83.60
17405;DHT22;8820;54.604;18.226;2023-03-16T11:45:16;8.30;79.30
17405;DHT22;8820;54.604;18.226;2023-03-16T11:50:56;8.60;75.70
17405;DHT22;8820;54.604;18.226;2023-03-16T11:53:47;8.30;75.80
17405;DHT22;8820;54.604;18.226;2023-03-16T11:56:32;8.10;73.30
17405;DHT22;8820;54.604;18.226;2023-03-16T11:59:32;8.40;74.10
17405;DHT22;8820;54.604;18.226;2023-03-16T12:02:32;9.40;69.20
17405;DHT22;8820;54.604;18.226;2023-03-16T12:08:32;10.20;61.00
17405;DHT22;8820;54.604;18.226;2023-03-16T12:11:09;9.60;61.10
17405;DHT22;8820;54.604;18.226;2023-03-16T12:13:52;9.50;63.00
17405;DHT22;8820;54.604;18.226;2023-03-16T12:16:26;9.00;62.90
17405;DHT22;8820;54.604;18.226;2023-03-16T12:19:14;8.90;64.90
17405;DHT22;8820;54.604;18.226;2023-03-16T12:21:48;9.50;64.70
17405;DHT22;8820;54.604;18.226;2023-03-16T12:24:25;9.20;63.90
17405;DHT22;8820;54.604;18.226;2023-03-16T12:26:56;9.10;65.10
17405;DHT22;8820;54.604;18.226;2023-03-16T12:29:31;8.80;65.50
17405;DHT22;8820;54.604;18.226;2023-03-16T12:32:08;11.20;61.90
17405;DHT22;8820;54.604;18.226;2023-03-16T12:34:41;11.60;55.40
17405;DHT22;8820;54.604;18.226;2023-03-16T12:37:27;11.20;55.20
17405;DHT22;8820;54.604;18.226;2023-03-16T12:40:08;10.30;56.70
17405;DHT22;8820;54.604;18.226;2023-03-16T12:42:52;9.80;58.00
17405;DHT22;8820;54.604;18.226;2023-03-16T12:45:30;9.50;59.10
17405;DHT22;8820;54.604;18.226;2023-03-16T12:48:09;9.20;60.00
17405;DHT22;8820;54.604;18.226;2023-03-16T12:50:49;9.50;61.70
17405;DHT22;8820;54.604;18.226;2023-03-16T12:53:37;11.00;58.10
17405;DHT22;8820;54.604;18.226;2023-03-16T12:56:10;10.40;57.10
17405;DHT22;8820;54.604;18.226;2023-03-16T12:58:42;10.40;57.50
17405;DHT22;8820;54.604;18.226;2023-03-16T13:01:12;10.20;57.60
17405;DHT22;8820;54.604;18.226;2023-03-16T13:03:45;13.10;53.00
17405;DHT22;8820;54.604;18.226;2023-03-16T13:06:20;15.90;48.80
17405;DHT22;8820;54.604;18.226;2023-03-16T13:08:53;19.10;42.40
17405;DHT22;8820;54.604;18.226;2023-03-16T13:11:25;16.90;40.00
17405;DHT22;8820;54.604;18.226;2023-03-16T13:14:06;14.90;43.70
17405;DHT22;8820;54.604;18.226;2023-03-16T13:16:39;13.50;46.80
17405;DHT22;8820;54.604;18.226;2023-03-16T13:19:23;12.00;49.80
17405;DHT22;8820;54.604;18.226;2023-03-16T13:22:01;11.10;51.70
17405;DHT22;8820;54.604;18.226;2023-03-16T13:24:38;10.00;53.70
17405;DHT22;8820;54.604;18.226;2023-03-16T13:27:20;11.90;54.60
17405;DHT22;8820;54.604;18.226;2023-03-16T13:29:54;15.90;45.60
17405;DHT22;8820;54.604;18.226;2023-03-16T13:32:25;14.90;44.60
17405;DHT22;8820;54.604;18.226;2023-03-16T13:34:57;13.30;47.50
17405;DHT22;8820;54.604;18.226;2023-03-16T13:37:28;12.40;48.90
17405;DHT22;8820;54.604;18.226;2023-03-16T13:39:58;12.00;50.10
17405;DHT22;8820;54.604;18.226;2023-03-16T13:42:30;11.70;52.00
17405;DHT22;8820;54.604;18.226;2023-03-16T13:45:10;11.20;51.90
17405;DHT22;8820;54.604;18.226;2023-03-16T13:47:42;11.70;53.20
17405;DHT22;8820;54.604;18.226;2023-03-16T13:50:13;11.00;52.10
17405;DHT22;8820;54.604;18.226;2023-03-16T13:52:55;10.20;53.70
17405;DHT22;8820;54.604;18.226;2023-03-16T13:55:31;10.00;55.50
17405;DHT22;8820;54.604;18.226;2023-03-16T13:58:03;11.30;53.60
17405;DHT22;8820;54.604;18.226;2023-03-16T14:00:34;11.50;52.30
17405;DHT22;8820;54.604;18.226;2023-03-16T14:03:12;11.90;51.20
17405;DHT22;8820;54.604;18.226;2023-03-16T14:05:43;12.00;50.90
17405;DHT22;8820;54.604;18.226;2023-03-16T14:08:17;11.90;50.50
17405;DHT22;8820;54.604;18.226;2023-03-16T14:10:46;12.00;50.90
17405;DHT22;8820;54.604;18.226;2023-03-16T14:13:29;12.00;50.60
17405;DHT22;8820;54.604;18.226;2023-03-16T14:16:01;12.10;50.20
17405;DHT22;8820;54.604;18.226;2023-03-16T14:18:34;12.20;49.70
17405;DHT22;8820;54.604;18.226;2023-03-16T14:21:06;12.20;49.60
17405;DHT22;8820;54.604;18.226;2023-03-16T14:23:39;12.30;49.70
17405;DHT22;8820;54.604;18.226;2023-03-16T14:26:11;12.10;50.00
17405;DHT22;8820;54.604;18.226;2023-03-16T14:28:54;11.30;50.60
17405;DHT22;8820;54.604;18.226;2023-03-16T14:31:32;10.80;51.60
17405;DHT22;8820;54.604;18.226;2023-03-16T14:34:03;10.30;52.20
17405;DHT22;8820;54.604;18.226;2023-03-16T14:36:36;10.30;52.70
17405;DHT22;8820;54.604;18.226;2023-03-16T14:39:12;10.60;52.00
17405;DHT22;8820;54.604;18.226;2023-03-16T14:41:43;10.80;51.20
17405;DHT22;8820;54.604;18.226;2023-03-16T14:44:23;10.80;50.70
17405;DHT22;8820;54.604;18.226;2023-03-16T14:46:53;10.40;51.30
17405;DHT22;8820;54.604;18.226;2023-03-16T14:49:26;10.10;52.00
17405;DHT22;8820;54.604;18.226;2023-03-16T14:52:00;9.80;52.30
17405;DHT22;8820;54.604;18.226;2023-03-16T14:54:30;9.40;52.90
17405;DHT22;8820;54.604;18.226;2023-03-16T14:57:00;9.00;53.20
17405;DHT22;8820;54.604;18.226;2023-03-16T14:59:31;9.10;54.20
17405;DHT22;8820;54.604;18.226;2023-03-16T15:02:01;9.40;53.70
17405;DHT22;8820;54.604;18.226;2023-03-16T15:04:32;9.60;53.50
17405;DHT22;8820;54.604;18.226;2023-03-16T15:07:12;9.70;53.60
17405;DHT22;8820;54.604;18.226;2023-03-16T15:09:46;9.80;53.70
17405;DHT22;8820;54.604;18.226;2023-03-16T15:12:17;9.90;53.80
17405;DHT22;8820;54.604;18.226;2023-03-16T15:14:47;9.60;54.40
17405;DHT22;8820;54.604;18.226;2023-03-16T15:17:33;9.40;54.70
17405;DHT22;8820;54.604;18.226;2023-03-16T15:20:03;9.20;54.90
17405;DHT22;8820;54.604;18.226;2023-03-16T15:22:35;9.10;55.10
17405;DHT22;8820;54.604;18.226;2023-03-16T15:25:18;8.80;55.40
17405;DHT22;8820;54.604;18.226;2023-03-16T15:27:47;8.60;56.10
17405;DHT22;8820;54.604;18.226;2023-03-16T15:30:19;8.40;56.60
17405;DHT22;8820;54.604;18.226;2023-03-16T15:32:49;8.40;56.80
17405;DHT22;8820;54.604;18.226;2023-03-16T15:35:18;8.50;57.10
17405;DHT22;8820;54.604;18.226;2023-03-16T15:37:47;8.70;56.80
17405;DHT22;8820;54.604;18.226;2023-03-16T15:40:18;8.60;55.80
17405;DHT22;8820;54.604;18.226;2023-03-16T15:42:48;8.70;55.80
17405;DHT22;8820;54.604;18.226;2023-03-16T15:45:20;8.80;55.90
17405;DHT22;8820;54.604;18.226;2023-03-16T15:47:50;8.60;55.90
17405;DHT22;8820;54.604;18.226;2023-03-16T15:50:21;8.60;56.30
17405;DHT22;8820;54.604;18.226;2023-03-16T15:52:53;8.50;56.20
17405;DHT22;8820;54.604;18.226;2023-03-16T15:55:27;8.40;56.30
17405;DHT22;8820;54.604;18.226;2023-03-16T15:58:00;8.40;56.10
17405;DHT22;8820;54.604;18.226;2023-03-16T16:00:33;8.20;56.00
17405;DHT22;8820;54.604;18.226;2023-03-16T16:03:03;8.00;56.20
17405;DHT22;8820;54.604;18.226;2023-03-16T16:05:32;7.80;56.20
17405;DHT22;8820;54.604;18.226;2023-03-16T16:08:02;7.60;56.60
17405;DHT22;8820;54.604;18.226;2023-03-16T16:10:31;7.70;56.80
17405;DHT22;8820;54.604;18.226;2023-03-16T16:13:00;7.50;57.20
17405;DHT22;8820;54.604;18.226;2023-03-16T16:15:31;7.50;56.80
17405;DHT22;8820;54.604;18.226;2023-03-16T16:18:16;7.50;56.90
17405;DHT22;8820;54.604;18.226;2023-03-16T16:20:48;7.50;57.00
17405;DHT22;8820;54.604;18.226;2023-03-16T16:23:17;7.40;56.80
17405;DHT22;8820;54.604;18.226;2023-03-16T16:25:46;7.20;56.70
17405;DHT22;8820;54.604;18.226;2023-03-16T16:28:18;7.20;57.00
17405;DHT22;8820;54.604;18.226;2023-03-16T16:30:49;7.10;57.30
17405;DHT22;8820;54.604;18.226;2023-03-16T16:33:22;7.00;57.40
17405;DHT22;8820;54.604;18.226;2023-03-16T16:35:52;6.90;57.60
17405;DHT22;8820;54.604;18.226;2023-03-16T16:38:22;6.80;56.90
17405;DHT22;8820;54.604;18.226;2023-03-16T16:40:51;6.70;56.90
17405;DHT22;8820;54.604;18.226;2023-03-16T16:43:28;6.70;57.00
17405;DHT22;8820;54.604;18.226;2023-03-16T16:46:00;6.70;57.20
17405;DHT22;8820;54.604;18.226;2023-03-16T16:48:32;6.60;57.60
17405;DHT22;8820;54.604;18.226;2023-03-16T16:51:01;6.60;57.90
17405;DHT22;8820;54.604;18.226;2023-03-16T16:53:30;6.60;58.10
17405;DHT22;8820;54.604;18.226;2023-03-16T16:55:58;6.50;58.20
17405;DHT22;8820;54.604;18.226;2023-03-16T16:58:27;6.40;58.40
17405;DHT22;8820;54.604;18.226;2023-03-16T17:00:58;6.30;58.90
17405;DHT22;8820;54.604;18.226;2023-03-16T17:03:28;6.30;59.30
17405;DHT22;8820;54.604;18.226;2023-03-16T17:05:57;6.30;59.80
17405;DHT22;8820;54.604;18.226;2023-03-16T17:08:26;6.20;60.10
17405;DHT22;8820;54.604;18.226;2023-03-16T17:10:55;6.10;60.80
17405;DHT22;8820;54.604;18.226;2023-03-16T17:13:26;6.10;61.30
17405;DHT22;8820;54.604;18.226;2023-03-16T17:15:56;6.00;61.70
17405;DHT22;8820;54.604;18.226;2023-03-16T17:18:27;5.90;62.30
17405;DHT22;8820;54.604;18.226;2023-03-16T17:20:56;5.90;62.70
17405;DHT22;8820;54.604;18.226;2023-03-16T17:23:27;5.80;62.80
17405;DHT22;8820;54.604;18.226;2023-03-16T17:25:59;5.70;63.60
17405;DHT22;8820;54.604;18.226;2023-03-16T17:28:33;5.60;64.90
17405;DHT22;8820;54.604;18.226;2023-03-16T17:31:03;5.50;65.50
17405;DHT22;8820;54.604;18.226;2023-03-16T17:33:33;5.40;67.60
17405;DHT22;8820;54.604;18.226;2023-03-16T17:36:01;5.30;68.00
17405;DHT22;8820;54.604;18.226;2023-03-16T17:38:31;5.20;68.60
17405;DHT22;8820;54.604;18.226;2023-03-16T17:40:59;5.20;68.80
17405;DHT22;8820;54.604;18.226;2023-03-16T17:43:29;5.20;69.00
17405;DHT22;8820;54.604;18.226;2023-03-16T17:45:59;5.00;70.10
17405;DHT22;8820;54.604;18.226;2023-03-16T17:48:29;5.00;70.60
17405;DHT22;8820;54.604;18.226;2023-03-16T17:50:59;4.90;70.90
17405;DHT22;8820;54.604;18.226;2023-03-16T17:53:28;4.90;72.10
17405;DHT22;8820;54.604;18.226;2023-03-16T17:55:57;4.80;72.50
17405;DHT22;8820;54.604;18.226;2023-03-16T17:58:27;4.60;73.30
17405;DHT22;8820;54.604;18.226;2023-03-16T18:00:56;4.50;74.60
17405;DHT22;8820;54.604;18.226;2023-03-16T18:03:25;4.30;75.30
17405;DHT22;8820;54.604;18.226;2023-03-16T18:05:56;4.10;77.30
17405;DHT22;8820;54.604;18.226;2023-03-16T18:08:29;4.10;78.60
17405;DHT22;8820;54.604;18.226;2023-03-16T18:11:01;4.20;78.50
17405;DHT22;8820;54.604;18.226;2023-03-16T18:13:31;4.20;77.10
17405;DHT22;8820;54.604;18.226;2023-03-16T18:16:01;4.20;77.80
17405;DHT22;8820;54.604;18.226;2023-03-16T18:18:33;4.10;79.40
17405;DHT22;8820;54.604;18.226;2023-03-16T18:21:04;4.00;79.90
17405;DHT22;8820;54.604;18.226;2023-03-16T18:23:37;3.90;80.00
17405;DHT22;8820;54.604;18.226;2023-03-16T18:26:05;3.70;83.50
17405;DHT22;8820;54.604;18.226;2023-03-16T18:28:35;3.90;82.30
17405;DHT22;8820;54.604;18.226;2023-03-16T18:31:04;3.80;81.50
17405;DHT22;8820;54.604;18.226;2023-03-16T18:33:35;3.60;83.70
17405;DHT22;8820;54.604;18.226;2023-03-16T18:36:09;3.20;90.10
17405;DHT22;8820;54.604;18.226;2023-03-16T18:38:42;3.10;92.90
17405;DHT22;8820;54.604;18.226;2023-03-16T18:41:14;3.20;92.10
17405;DHT22;8820;54.604;18.226;2023-03-16T18:43:43;3.20;91.70
17405;DHT22;8820;54.604;18.226;2023-03-16T18:46:22;2.70;94.40
17405;DHT22;8820;54.604;18.226;2023-03-16T18:48:52;2.70;95.40
17405;DHT22;8820;54.604;18.226;2023-03-16T18:51:21;2.60;96.10
17405;DHT22;8820;54.604;18.226;2023-03-16T18:53:53;2.80;95.30
17405;DHT22;8820;54.604;18.226;2023-03-16T18:56:23;2.60;95.20
17405;DHT22;8820;54.604;18.226;2023-03-16T18:58:54;2.40;97.10
17405;DHT22;8820;54.604;18.226;2023-03-16T19:01:25;2.30;97.80
17405;DHT22;8820;54.604;18.226;2023-03-16T19:03:56;2.40;97.90
17405;DHT22;8820;54.604;18.226;2023-03-16T19:06:26;2.20;98.70
17405;DHT22;8820;54.604;18.226;2023-03-16T19:09:03;2.20;99.90
17405;DHT22;8820;54.604;18.226;2023-03-16T19:11:38;2.40;98.40
17405;DHT22;8820;54.604;18.226;2023-03-16T19:14:13;2.40;98.10
17405;DHT22;8820;54.604;18.226;2023-03-16T19:16:42;2.30;98.60
17405;DHT22;8820;54.604;18.226;2023-03-16T19:19:12;2.10;99.80
17405;DHT22;8820;54.604;18.226;2023-03-16T19:21:42;2.00;99.90
17405;DHT22;8820;54.604;18.226;2023-03-16T19:24:20;1.90;99.90
17405;DHT22;8820;54.604;18.226;2023-03-16T19:26:50;1.90;99.90
17405;DHT22;8820;54.604;18.226;2023-03-16T19:29:22;2.10;99.90
17405;DHT22;8820;54.604;18.226;2023-03-16T19:31:55;2.30;99.00
17405;DHT22;8820;54.604;18.226;2023-03-16T19:34:24;2.40;98.10
17405;DHT22;8820;54.604;18.226;2023-03-16T19:36:53;2.30;97.70
17405;DHT22;8820;54.604;18.226;2023-03-16T19:39:23;2.10;99.50
17405;DHT22;8820;54.604;18.226;2023-03-16T19:41:54;2.00;99.70
17405;DHT22;8820;54.604;18.226;2023-03-16T19:44:25;1.80;99.90
17405;DHT22;8820;54.604;18.226;2023-03-16T19:46:55;1.50;99.90
17405;DHT22;8820;54.604;18.226;2023-03-16T19:49:26;1.50;99.90
17405;DHT22;8820;54.604;18.226;2023-03-16T19:51:55;1.70;99.90
17405;DHT22;8820;54.604;18.226;2023-03-16T19:54:28;1.80;99.90
17405;DHT22;8820;54.604;18.226;2023-03-16T19:57:01;1.80;99.90
17405;DHT22;8820;54.604;18.226;2023-03-16T19:59:32;1.60;99.90
17405;DHT22;8820;54.604;18.226;2023-03-16T20:02:01;1.70;99.90
17405;DHT22;8820;54.604;18.226;2023-03-16T20:04:30;1.70;99.90
17405;DHT22;8820;54.604;18.226;2023-03-16T20:06:59;1.50;99.90
17405;DHT22;8820;54.604;18.226;2023-03-16T20:09:29;1.60;99.90
17405;DHT22;8820;54.604;18.226;2023-03-16T20:11:58;1.60;99.90
17405;DHT22;8820;54.604;18.226;2023-03-16T20:14:30;1.50;99.90
17405;DHT22;8820;54.604;18.226;2023-03-16T20:17:00;1.80;99.90
17405;DHT22;8820;54.604;18.226;2023-03-16T20:19:28;1.80;99.90
17405;DHT22;8820;54.604;18.226;2023-03-16T20:21:57;1.70;99.90
17405;DHT22;8820;54.604;18.226;2023-03-16T20:24:26;1.80;99.90
17405;DHT22;8820;54.604;18.226;2023-03-16T20:26:57;1.90;99.90
17405;DHT22;8820;54.604;18.226;2023-03-16T20:29:28;1.60;99.90
17405;DHT22;8820;54.604;18.226;2023-03-16T20:31:58;1.40;99.90
17405;DHT22;8820;54.604;18.226;2023-03-16T20:34:28;1.30;99.90
17405;DHT22;8820;54.604;18.226;2023-03-16T20:36:58;1.10;99.90
17405;DHT22;8820;54.604;18.226;2023-03-16T20:39:27;1.00;99.90
17405;DHT22;8820;54.604;18.226;2023-03-16T20:41:57;0.80;99.90
17405;DHT22;8820;54.604;18.226;2023-03-16T20:44:27;0.80;99.90
17405;DHT22;8820;54.604;18.226;2023-03-16T20:46:56;1.00;99.90
17405;DHT22;8820;54.604;18.226;2023-03-16T20:49:29;1.00;99.90
17405;DHT22;8820;54.604;18.226;2023-03-16T20:51:59;1.00;99.90
17405;DHT22;8820;54.604;18.226;2023-03-16T20:54:27;1.00;99.90
17405;DHT22;8820;54.604;18.226;2023-03-16T20:56:57;0.70;99.90
17405;DHT22;8820;54.604;18.226;2023-03-16T20:59:27;1.00;99.90
17405;DHT22;8820;54.604;18.226;2023-03-16T21:01:56;0.90;99.90
17405;DHT22;8820;54.604;18.226;2023-03-16T21:04:27;1.10;99.90
17405;DHT22;8820;54.604;18.226;2023-03-16T21:06:56;1.30;99.90
17405;DHT22;8820;54.604;18.226;2023-03-16T21:09:24;1.10;99.90
17405;DHT22;8820;54.604;18.226;2023-03-16T21:11:53;1.20;99.90
17405;DHT22;8820;54.604;18.226;2023-03-16T21:17:56;1.30;99.90
17405;DHT22;8820;54.604;18.226;2023-03-16T21:20:27;1.00;99.90
17405;DHT22;8820;54.604;18.226;2023-03-16T21:22:57;1.00;99.90
17405;DHT22;8820;54.604;18.226;2023-03-16T21:25:28;1.10;99.90
17405;DHT22;8820;54.604;18.226;2023-03-16T21:28:00;1.00;99.90
17405;DHT22;8820;54.604;18.226;2023-03-16T21:30:30;0.80;99.90